UKKKUKLI

Guest
Details From UKKK - Zhuliany Intl
To UKLI - Ivano Frankivsk Intl
Flight Number -
Tags Generated
Created
Modified
Stats Distance 242 nm / 448 km
Max Altitude 0 ft / 0 m
Waypoints 3
Social Downloads 0
Likes 0
Share VATSIM

Download

Looking for another format? Having issues loading an existing format? Contact us
Advertisement - Login to hide

Notes

Generated

Route

UKKK IVF UKLI

ID Type Via Altitude Latitude Longitude Leg Dist Tot Dist Heading (true) Name
O UKKK APT - 0 ft / 0 m 50.40113˚ 30.43699˚ - 0 nm - -
IVF VOR - 0 ft / 0 m 48.88466˚ 24.68990˚ 241 nm 241 nm 250° / 246° IVANO FRANKIVSK VOR-DME
O UKLI APT - 0 ft / 0 m 48.88667˚ 24.67000˚ 0 nm 242 nm 279° / 279° -

Altitude Profile

Advertisement - Login to hide

Weather


0- 5 10 15 20 25 30 35+ Temperature / ° C

Clouds and Precipitation
Forecast for 2017-12-12 06:00 UTC. Updated an hour ago

Ground ~20,000 ft ~40,000 ft Winds

UKKK

Details ICAO UKKK (IEV)
Name ZHULIANY INTL
Region Ukraine
Timezone Europe/Kiev (UTC+2.0)
Stats Elevation 586 ft / 179 m (AMSL)
Location 50.401694° 30.449697°
Runways 1
Magnetic Variation 7.596° E

METAR

UKKK 120600Z 18003MPS 120V220 CAVOK 02/M01 Q1008 R08/810250 NOSIG

Decode

TAF

TAF TAF UKKK 120503Z 1206/1306 19005G10MPS 9999 BKN010 TEMPO 1206/1218 22007G13MPS 3000 -SHRA BR BKN005 SCT010CB TEMPO 1218/1306 2000 -DZ BR OVC005 TX07/1212Z TN02/1206Z

Decode

Departure Runways

ID Width Length Bearing (true) Bearing (mag) Surface Threshold Offset Overrun Length
08 161 ft / 49 m 5,926 ft / 1,806 m 86.02° 78.42° Concrete 0 ft / 0 m 0 ft / 0 m
26 161 ft / 49 m 5,926 ft / 1,806 m 266.04° 258.44° Concrete 0 ft / 0 m 1,132 ft / 345 m

UKLI

Details ICAO UKLI (IFO)
Name IVANO FRANKIVSK INTL
Region Ukraine
Timezone Europe/Kiev (UTC+2.0)
Stats Elevation 919 ft / 280 m (AMSL)
Location 48.884167° 24.686667°
Runways 1
Magnetic Variation 6.083° E

METAR

UKLI 120600Z 13005MPS 9999 FEW046 BKN100 10/03 Q1004 R10/190068 NOSIG

Decode

TAF

Not found

Destination Runways

ID Width Length Bearing (true) Bearing (mag) Surface Threshold Offset Overrun Length
10 144 ft / 44 m 8,204 ft / 2,501 m 102.84° 96.76° Concrete 0 ft / 0 m 0 ft / 0 m
28 144 ft / 44 m 8,204 ft / 2,501 m 282.86° 276.78° Concrete 0 ft / 0 m 0 ft / 0 m

Approach Navaids

Runway Type Ident Frequency Range Bearing (true) Bearing (mag) Slope Elevation
10 Localiser IIV 108.70 MHz 18 nm / 33 km 103.85° 97.77° - 919 ft / 280 m (AMSL)
10 Glidescope IIV 108.70 MHz 10 nm / 19 km 102.85° 96.77° 3.00° 919 ft / 280 m (AMSL)
28 Localiser IIF 109.30 MHz 18 nm / 33 km 283.06° 276.98° - 919 ft / 280 m (AMSL)
28 Glidescope IIF 109.30 MHz 10 nm / 19 km 282.85° 276.77° 3.00° 919 ft / 280 m (AMSL)

Popular Alternatives